Portada
METAR-TAF:

METAR-TAF

Aeroports :

Perm, Rússia

latitud: 58-00N, longitud: 056-15E, altitud: 170 m

Observació

L'informe es va fer fa 19 minuts, a les 21:00 UTC
Vent 16 kt del Sud-Oest
Temperatura 1°C
Humitat 93%
Pressió 1007 hPa
Visibilitat 10 km o més
Cel ennuvolat a una alçada de 3200 ft

METAR: USPP 182100Z 23008MPS 9999 BKN032 01/M00 Q1007 R21/350145 NOSIG RMK QFE744

Hora: 02:19 (21:19 UTC)

Pronòstic

L'informe es va fer fa 1 hora i 21 minuts, a les 19:58 UTC
Pronòstic vàlid del 18 a les 21 UTC al 19 a les 21 UTC
Vent 12 kt del Sud-Oest
Visibilitat: 8000 m
Cel ennuvolat a una alçada de 1100 ft
neu, pluja
Temporalment
l' 18 a les 21 UTC al 19 a les 06 UTC
Vent 14 kt del Oest/Sud-Oest amb ràfegues de 27 kt
Visibilitat: 3200 m
Cel ennuvolat a una alçada de 700 ft
neu, pluja

TAF: USPP 181958Z 1821/1921 22006MPS 8000 -SNRA BKN011 TEMPO 1821/1906 24007G14MPS 3200 -SNRA BKN007

Observacions i pronòstics meteorològics de més de 4000 aeroports (METAR i TAF).

Les estacions disponibles són els punts grocs i vermells al mapa.

Posi el ratolí al punt desitjat per veure el nom de l'estació.

Feu clic per veure les observacions i els pronòstics meteorològics.

Per canviar el mapa: feu clic els botons verds amb una creu de color negre per apropar; al botó verd amb un guió per allunyar la imatge; o en les fletxes verdes per a mapes adjacents.


METAR-TAF: